This is the latest recevied weather packets stored in our database for station/object HS9UAC-10. If no packets are shown the sender has not sent any weather packets the latest 10 day(s).
| Time | Temp. | Humidity | Pressure | Rain* | Wind** | Luminosity | Snow |
|---|---|---|---|---|---|---|---|
| 1777958505 | 39.44° C | 46% | 1008 hPa | - | - | 0 W/m² | - |
| 1777957581 | 40° C | 45% | 1008 hPa | - | - | 0 W/m² | - |
| 1777956656 | 40° C | 46% | 1008 hPa | - | - | 0 W/m² | - |
| 1777955732 | 38.89° C | 48% | 1008 hPa | - | - | 0 W/m² | - |
| 1777954807 | 40° C | 49% | 1008 hPa | - | - | 0 W/m² | - |
| 1777953883 | 38.89° C | 52% | 1009 hPa | - | - | 0 W/m² | - |
| 1777952958 | 38.33° C | 56% | 1009 hPa | - | - | 0 W/m² | - |
| 1777952033 | 37.78° C | 58% | 1009 hPa | - | - | 0 W/m² | - |
| 1777951109 | 37.22° C | 59% | 1009 hPa | - | - | 0 W/m² | - |
| 1777950184 | 37.78° C | 58% | 1009 hPa | - | - | 0 W/m² | - |
| 1777949260 | 36.67° C | 63% | 1009 hPa | - | - | 0 W/m² | - |
| 1777948335 | 37.22° C | 63% | 1009 hPa | - | - | 0 W/m² | - |
| 1777947410 | 35.56° C | 72% | 1009 hPa | - | - | 0 W/m² | - |
| 1777946486 | 37.22° C | 65% | 1009 hPa | - | - | 0 W/m² | - |
| 1777945561 | 37.22° C | 66% | 1008 hPa | - | - | 0 W/m² | - |
| 1777944637 | 36.67° C | 69% | 1008 hPa | - | - | 0 W/m² | - |
| 1777943712 | 35.56° C | 72% | 1008 hPa | - | - | 0 W/m² | - |
| 1777942788 | 35° C | 76% | 1008 hPa | - | - | 0 W/m² | - |
| 1777941863 | 34.44° C | 82% | 1008 hPa | - | - | 0 W/m² | - |
| 1777940938 | 33.33° C | 87% | 1008 hPa | - | - | 0 W/m² | - |
| 1777940014 | 32.78° C | 90% | 1007 hPa | - | - | 0 W/m² | - |
| 1777939089 | 32.22° C | 91% | 1007 hPa | - | - | 0 W/m² | - |
| 1777938164 | 32.22° C | 91% | 1007 hPa | - | - | 0 W/m² | - |
| 1777937240 | 32.22° C | 91% | 1007 hPa | - | - | 0 W/m² | - |
| 1777936315 | 32.22° C | 90% | 1007 hPa | - | - | 0 W/m² | - |
* Rain since midnight (hover to see other rain measurements)
** Current wind speed in m/s (hover to see current wind gust speed)